sensor_id;sensor_type;location;lat;lon;timestamp;P1;durP1;ratioP1;P2;durP2;ratioP2
8584;SDS011;7180;52.742;11.420;2023-03-03T00:00:58;19.50;;;16.80;;
8584;SDS011;7180;52.742;11.420;2023-03-03T00:03:23;18.77;;;16.67;;
8584;SDS011;7180;52.742;11.420;2023-03-03T00:05:51;19.43;;;16.47;;
8584;SDS011;7180;52.742;11.420;2023-03-03T00:08:17;18.93;;;16.20;;
8584;SDS011;7180;52.742;11.420;2023-03-03T00:10:44;19.07;;;16.67;;
8584;SDS011;7180;52.742;11.420;2023-03-03T00:13:23;17.90;;;15.83;;
8584;SDS011;7180;52.742;11.420;2023-03-03T00:15:50;18.70;;;16.73;;
8584;SDS011;7180;52.742;11.420;2023-03-03T00:18:21;18.50;;;16.60;;
8584;SDS011;7180;52.742;11.420;2023-03-03T00:20:51;18.77;;;16.60;;
8584;SDS011;7180;52.742;11.420;2023-03-03T00:29:02;18.87;;;16.83;;
8584;SDS011;7180;52.742;11.420;2023-03-03T00:31:43;19.57;;;16.87;;
8584;SDS011;7180;52.742;11.420;2023-03-03T00:34:25;18.43;;;16.43;;
8584;SDS011;7180;52.742;11.420;2023-03-03T00:36:55;18.77;;;16.67;;
8584;SDS011;7180;52.742;11.420;2023-03-03T00:42:12;19.77;;;16.03;;
8584;SDS011;7180;52.742;11.420;2023-03-03T00:44:42;18.63;;;16.63;;
8584;SDS011;7180;52.742;11.420;2023-03-03T00:47:14;19.33;;;17.27;;
8584;SDS011;7180;52.742;11.420;2023-03-03T00:49:42;20.27;;;17.50;;
8584;SDS011;7180;52.742;11.420;2023-03-03T00:52:13;21.67;;;17.17;;
8584;SDS011;7180;52.742;11.420;2023-03-03T00:54:41;20.43;;;16.53;;
8584;SDS011;7180;52.742;11.420;2023-03-03T00:57:06;20.10;;;17.13;;
8584;SDS011;7180;52.742;11.420;2023-03-03T00:59:31;18.50;;;16.47;;
8584;SDS011;7180;52.742;11.420;2023-03-03T01:01:56;19.50;;;17.40;;
8584;SDS011;7180;52.742;11.420;2023-03-03T01:04:22;18.97;;;17.00;;
8584;SDS011;7180;52.742;11.420;2023-03-03T01:06:47;19.37;;;16.73;;
8584;SDS011;7180;52.742;11.420;2023-03-03T01:09:13;20.50;;;16.90;;
8584;SDS011;7180;52.742;11.420;2023-03-03T01:11:38;20.03;;;17.17;;
8584;SDS011;7180;52.742;11.420;2023-03-03T01:14:04;20.50;;;17.27;;
8584;SDS011;7180;52.742;11.420;2023-03-03T01:16:29;18.77;;;16.77;;
8584;SDS011;7180;52.742;11.420;2023-03-03T01:18:54;20.10;;;17.33;;
8584;SDS011;7180;52.742;11.420;2023-03-03T01:21:19;19.97;;;17.33;;
8584;SDS011;7180;52.742;11.420;2023-03-03T01:23:45;20.80;;;17.93;;
8584;SDS011;7180;52.742;11.420;2023-03-03T01:26:10;20.53;;;17.30;;
8584;SDS011;7180;52.742;11.420;2023-03-03T01:28:35;20.93;;;18.13;;
8584;SDS011;7180;52.742;11.420;2023-03-03T01:31:01;20.93;;;17.80;;
8584;SDS011;7180;52.742;11.420;2023-03-03T01:33:28;20.63;;;17.23;;
8584;SDS011;7180;52.742;11.420;2023-03-03T01:35:53;19.37;;;17.03;;
8584;SDS011;7180;52.742;11.420;2023-03-03T01:38:18;19.43;;;17.33;;
8584;SDS011;7180;52.742;11.420;2023-03-03T01:40:48;19.17;;;17.17;;
8584;SDS011;7180;52.742;11.420;2023-03-03T01:43:16;18.70;;;16.63;;
8584;SDS011;7180;52.742;11.420;2023-03-03T01:48:15;21.33;;;17.53;;
8584;SDS011;7180;52.742;11.420;2023-03-03T01:50:56;18.80;;;16.80;;
8584;SDS011;7180;52.742;11.420;2023-03-03T01:53:29;19.67;;;17.10;;
8584;SDS011;7180;52.742;11.420;2023-03-03T01:55:58;20.80;;;17.83;;
8584;SDS011;7180;52.742;11.420;2023-03-03T01:58:30;18.77;;;16.67;;
8584;SDS011;7180;52.742;11.420;2023-03-03T02:01:01;19.33;;;17.27;;
8584;SDS011;7180;52.742;11.420;2023-03-03T02:03:30;19.20;;;16.73;;
8584;SDS011;7180;52.742;11.420;2023-03-03T02:05:58;20.87;;;17.40;;
8584;SDS011;7180;52.742;11.420;2023-03-03T02:08:29;18.97;;;16.93;;
8584;SDS011;7180;52.742;11.420;2023-03-03T02:11:00;21.63;;;17.53;;
8584;SDS011;7180;52.742;11.420;2023-03-03T02:13:27;21.00;;;17.97;;
8584;SDS011;7180;52.742;11.420;2023-03-03T02:15:52;20.43;;;17.30;;
8584;SDS011;7180;52.742;11.420;2023-03-03T02:18:18;21.40;;;18.20;;
8584;SDS011;7180;52.742;11.420;2023-03-03T02:26:15;20.90;;;17.23;;
8584;SDS011;7180;52.742;11.420;2023-03-03T02:28:42;19.97;;;17.83;;
8584;SDS011;7180;52.742;11.420;2023-03-03T02:31:09;22.27;;;18.53;;
8584;SDS011;7180;52.742;11.420;2023-03-03T02:33:37;22.03;;;18.20;;
8584;SDS011;7180;52.742;11.420;2023-03-03T02:36:04;21.13;;;17.80;;
8584;SDS011;7180;52.742;11.420;2023-03-03T02:38:31;20.67;;;17.40;;
8584;SDS011;7180;52.742;11.420;2023-03-03T02:41:14;20.40;;;18.20;;
8584;SDS011;7180;52.742;11.420;2023-03-03T02:46:27;20.17;;;17.90;;
8584;SDS011;7180;52.742;11.420;2023-03-03T02:48:57;20.37;;;17.93;;
8584;SDS011;7180;52.742;11.420;2023-03-03T02:51:22;19.40;;;17.40;;
8584;SDS011;7180;52.742;11.420;2023-03-03T02:53:48;20.07;;;17.10;;
8584;SDS011;7180;52.742;11.420;2023-03-03T02:56:13;20.23;;;17.27;;
8584;SDS011;7180;52.742;11.420;2023-03-03T02:58:39;20.53;;;18.33;;
8584;SDS011;7180;52.742;11.420;2023-03-03T03:01:04;22.10;;;17.80;;
8584;SDS011;7180;52.742;11.420;2023-03-03T03:03:29;20.90;;;18.40;;
8584;SDS011;7180;52.742;11.420;2023-03-03T03:05:55;19.83;;;17.43;;
8584;SDS011;7180;52.742;11.420;2023-03-03T03:08:20;19.40;;;17.40;;
8584;SDS011;7180;52.742;11.420;2023-03-03T03:10:45;18.33;;;16.43;;
8584;SDS011;7180;52.742;11.420;2023-03-03T03:13:11;19.27;;;17.27;;
8584;SDS011;7180;52.742;11.420;2023-03-03T03:15:36;18.27;;;16.37;;
8584;SDS011;7180;52.742;11.420;2023-03-03T03:18:02;18.23;;;16.33;;
8584;SDS011;7180;52.742;11.420;2023-03-03T03:20:27;17.73;;;15.97;;
8584;SDS011;7180;52.742;11.420;2023-03-03T03:22:53;17.77;;;15.97;;
8584;SDS011;7180;52.742;11.420;2023-03-03T03:25:18;18.97;;;16.97;;
8584;SDS011;7180;52.742;11.420;2023-03-03T03:27:43;18.70;;;16.73;;
8584;SDS011;7180;52.742;11.420;2023-03-03T03:30:09;18.10;;;15.97;;
8584;SDS011;7180;52.742;11.420;2023-03-03T03:32:34;18.10;;;16.20;;
8584;SDS011;7180;52.742;11.420;2023-03-03T03:35:00;18.47;;;16.37;;
8584;SDS011;7180;52.742;11.420;2023-03-03T03:37:25;20.83;;;17.00;;
8584;SDS011;7180;52.742;11.420;2023-03-03T03:39:50;19.17;;;17.17;;
8584;SDS011;7180;52.742;11.420;2023-03-03T03:42:16;18.63;;;16.60;;
8584;SDS011;7180;52.742;11.420;2023-03-03T03:44:41;19.10;;;17.20;;
8584;SDS011;7180;52.742;11.420;2023-03-03T03:47:06;19.23;;;17.33;;
8584;SDS011;7180;52.742;11.420;2023-03-03T03:49:32;19.33;;;17.07;;
8584;SDS011;7180;52.742;11.420;2023-03-03T03:51:57;18.03;;;16.13;;
8584;SDS011;7180;52.742;11.420;2023-03-03T03:54:22;20.47;;;16.87;;
8584;SDS011;7180;52.742;11.420;2023-03-03T03:56:47;18.80;;;16.87;;
8584;SDS011;7180;52.742;11.420;2023-03-03T03:59:13;20.53;;;18.00;;
8584;SDS011;7180;52.742;11.420;2023-03-03T04:01:39;19.07;;;17.17;;
8584;SDS011;7180;52.742;11.420;2023-03-03T04:04:04;20.23;;;17.77;;
8584;SDS011;7180;52.742;11.420;2023-03-03T04:06:30;21.60;;;18.80;;
8584;SDS011;7180;52.742;11.420;2023-03-03T04:08:55;22.57;;;18.23;;
8584;SDS011;7180;52.742;11.420;2023-03-03T04:11:21;22.70;;;18.20;;
8584;SDS011;7180;52.742;11.420;2023-03-03T04:13:46;20.63;;;18.33;;
8584;SDS011;7180;52.742;11.420;2023-03-03T04:16:11;22.43;;;18.57;;
8584;SDS011;7180;52.742;11.420;2023-03-03T04:18:37;22.53;;;19.17;;
8584;SDS011;7180;52.742;11.420;2023-03-03T04:21:02;20.80;;;18.53;;
8584;SDS011;7180;52.742;11.420;2023-03-03T04:23:28;22.13;;;19.30;;
8584;SDS011;7180;52.742;11.420;2023-03-03T04:25:53;21.73;;;19.30;;
8584;SDS011;7180;52.742;11.420;2023-03-03T04:28:18;21.27;;;18.23;;
8584;SDS011;7180;52.742;11.420;2023-03-03T04:30:44;22.77;;;18.77;;
8584;SDS011;7180;52.742;11.420;2023-03-03T04:33:09;21.40;;;18.80;;
8584;SDS011;7180;52.742;11.420;2023-03-03T04:35:34;22.53;;;19.97;;
8584;SDS011;7180;52.742;11.420;2023-03-03T04:38:00;21.23;;;18.60;;
8584;SDS011;7180;52.742;11.420;2023-03-03T04:40:25;24.20;;;19.23;;
8584;SDS011;7180;52.742;11.420;2023-03-03T04:42:51;20.90;;;18.53;;
8584;SDS011;7180;52.742;11.420;2023-03-03T04:45:17;24.63;;;20.03;;
8584;SDS011;7180;52.742;11.420;2023-03-03T04:47:42;22.47;;;20.07;;
8584;SDS011;7180;52.742;11.420;2023-03-03T04:50:08;25.50;;;20.03;;
8584;SDS011;7180;52.742;11.420;2023-03-03T04:52:34;22.90;;;19.67;;
8584;SDS011;7180;52.742;11.420;2023-03-03T04:54:59;24.37;;;20.23;;
8584;SDS011;7180;52.742;11.420;2023-03-03T04:57:25;24.10;;;20.10;;
8584;SDS011;7180;52.742;11.420;2023-03-03T04:59:50;22.93;;;19.10;;
8584;SDS011;7180;52.742;11.420;2023-03-03T05:02:16;22.23;;;19.17;;
8584;SDS011;7180;52.742;11.420;2023-03-03T05:04:41;23.30;;;19.67;;
8584;SDS011;7180;52.742;11.420;2023-03-03T05:07:07;21.67;;;19.33;;
8584;SDS011;7180;52.742;11.420;2023-03-03T05:09:32;25.17;;;21.00;;
8584;SDS011;7180;52.742;11.420;2023-03-03T05:11:58;25.60;;;21.17;;
8584;SDS011;7180;52.742;11.420;2023-03-03T05:14:23;23.93;;;20.60;;
8584;SDS011;7180;52.742;11.420;2023-03-03T05:16:48;26.33;;;20.13;;
8584;SDS011;7180;52.742;11.420;2023-03-03T05:19:14;22.73;;;19.37;;
8584;SDS011;7180;52.742;11.420;2023-03-03T05:21:39;24.50;;;20.27;;
8584;SDS011;7180;52.742;11.420;2023-03-03T05:24:10;25.13;;;19.77;;
8584;SDS011;7180;52.742;11.420;2023-03-03T05:26:37;23.60;;;19.10;;
8584;SDS011;7180;52.742;11.420;2023-03-03T05:29:04;24.33;;;19.53;;
8584;SDS011;7180;52.742;11.420;2023-03-03T05:31:30;23.07;;;19.67;;
8584;SDS011;7180;52.742;11.420;2023-03-03T05:33:56;20.87;;;18.63;;
8584;SDS011;7180;52.742;11.420;2023-03-03T05:36:21;23.93;;;20.30;;
8584;SDS011;7180;52.742;11.420;2023-03-03T05:38:46;25.73;;;19.33;;
8584;SDS011;7180;52.742;11.420;2023-03-03T05:41:11;23.27;;;19.00;;
8584;SDS011;7180;52.742;11.420;2023-03-03T05:43:37;21.43;;;17.90;;
8584;SDS011;7180;52.742;11.420;2023-03-03T05:46:02;21.73;;;18.53;;
8584;SDS011;7180;52.742;11.420;2023-03-03T05:48:27;21.77;;;18.50;;
8584;SDS011;7180;52.742;11.420;2023-03-03T05:50:53;21.50;;;17.27;;
8584;SDS011;7180;52.742;11.420;2023-03-03T05:53:21;24.53;;;19.37;;
8584;SDS011;7180;52.742;11.420;2023-03-03T05:55:47;23.70;;;19.27;;
8584;SDS011;7180;52.742;11.420;2023-03-03T05:58:12;21.33;;;18.57;;
8584;SDS011;7180;52.742;11.420;2023-03-03T06:00:37;21.87;;;18.33;;
8584;SDS011;7180;52.742;11.420;2023-03-03T06:03:02;23.37;;;18.33;;
8584;SDS011;7180;52.742;11.420;2023-03-03T06:05:28;24.00;;;18.83;;
8584;SDS011;7180;52.742;11.420;2023-03-03T06:07:53;25.10;;;19.17;;
8584;SDS011;7180;52.742;11.420;2023-03-03T06:10:18;24.63;;;19.40;;
8584;SDS011;7180;52.742;11.420;2023-03-03T06:12:44;24.67;;;18.60;;
8584;SDS011;7180;52.742;11.420;2023-03-03T06:15:09;22.83;;;18.87;;
8584;SDS011;7180;52.742;11.420;2023-03-03T06:17:35;24.47;;;18.80;;
8584;SDS011;7180;52.742;11.420;2023-03-03T06:20:00;25.73;;;19.40;;
8584;SDS011;7180;52.742;11.420;2023-03-03T06:22:26;24.03;;;19.60;;
8584;SDS011;7180;52.742;11.420;2023-03-03T06:24:51;26.27;;;19.37;;
8584;SDS011;7180;52.742;11.420;2023-03-03T06:27:17;26.90;;;18.77;;
8584;SDS011;7180;52.742;11.420;2023-03-03T06:29:42;21.93;;;18.23;;
8584;SDS011;7180;52.742;11.420;2023-03-03T06:32:08;27.37;;;19.77;;
8584;SDS011;7180;52.742;11.420;2023-03-03T06:34:33;25.87;;;19.23;;
8584;SDS011;7180;52.742;11.420;2023-03-03T06:36:58;23.40;;;19.17;;
8584;SDS011;7180;52.742;11.420;2023-03-03T06:39:24;25.23;;;19.00;;
8584;SDS011;7180;52.742;11.420;2023-03-03T06:41:49;26.27;;;18.93;;
8584;SDS011;7180;52.742;11.420;2023-03-03T06:44:14;22.80;;;18.80;;
8584;SDS011;7180;52.742;11.420;2023-03-03T06:46:39;23.63;;;18.73;;
8584;SDS011;7180;52.742;11.420;2023-03-03T06:49:05;24.67;;;18.90;;
8584;SDS011;7180;52.742;11.420;2023-03-03T06:51:31;24.77;;;18.20;;
8584;SDS011;7180;52.742;11.420;2023-03-03T06:54:00;26.10;;;18.50;;
8584;SDS011;7180;52.742;11.420;2023-03-03T06:56:30;24.47;;;18.97;;
8584;SDS011;7180;52.742;11.420;2023-03-03T06:58:59;27.80;;;19.83;;
8584;SDS011;7180;52.742;11.420;2023-03-03T07:01:27;26.33;;;19.20;;
8584;SDS011;7180;52.742;11.420;2023-03-03T07:03:59;25.23;;;19.00;;
8584;SDS011;7180;52.742;11.420;2023-03-03T07:06:24;26.90;;;19.83;;
8584;SDS011;7180;52.742;11.420;2023-03-03T07:08:52;27.90;;;19.20;;
8584;SDS011;7180;52.742;11.420;2023-03-03T07:11:19;26.30;;;19.83;;
8584;SDS011;7180;52.742;11.420;2023-03-03T07:13:47;27.07;;;20.43;;
8584;SDS011;7180;52.742;11.420;2023-03-03T07:16:15;28.97;;;21.37;;
8584;SDS011;7180;52.742;11.420;2023-03-03T07:18:51;26.83;;;19.57;;
8584;SDS011;7180;52.742;11.420;2023-03-03T07:21:35;28.40;;;19.80;;
8584;SDS011;7180;52.742;11.420;2023-03-03T07:24:12;24.83;;;19.50;;
8584;SDS011;7180;52.742;11.420;2023-03-03T07:26:39;25.50;;;19.53;;
8584;SDS011;7180;52.742;11.420;2023-03-03T07:31:48;26.00;;;19.17;;
8584;SDS011;7180;52.742;11.420;2023-03-03T07:37:33;26.33;;;19.70;;
8584;SDS011;7180;52.742;11.420;2023-03-03T07:40:05;25.50;;;19.27;;
8584;SDS011;7180;52.742;11.420;2023-03-03T07:42:55;27.93;;;20.30;;
8584;SDS011;7180;52.742;11.420;2023-03-03T07:45:30;28.70;;;19.77;;
8584;SDS011;7180;52.742;11.420;2023-03-03T07:50:51;26.07;;;19.80;;
8584;SDS011;7180;52.742;11.420;2023-03-03T07:53:21;25.63;;;19.70;;
8584;SDS011;7180;52.742;11.420;2023-03-03T07:55:58;29.17;;;20.80;;
8584;SDS011;7180;52.742;11.420;2023-03-03T07:58:34;29.03;;;21.20;;
8584;SDS011;7180;52.742;11.420;2023-03-03T08:04:18;28.83;;;21.23;;
8584;SDS011;7180;52.742;11.420;2023-03-03T08:06:58;30.23;;;21.10;;
8584;SDS011;7180;52.742;11.420;2023-03-03T08:09:29;31.00;;;21.20;;
8584;SDS011;7180;52.742;11.420;2023-03-03T08:14:32;30.40;;;21.67;;
8584;SDS011;7180;52.742;11.420;2023-03-03T08:16:59;29.17;;;19.80;;
8584;SDS011;7180;52.742;11.420;2023-03-03T08:19:25;29.10;;;20.90;;
8584;SDS011;7180;52.742;11.420;2023-03-03T08:22:00;29.43;;;20.87;;
8584;SDS011;7180;52.742;11.420;2023-03-03T08:24:36;31.50;;;22.97;;
8584;SDS011;7180;52.742;11.420;2023-03-03T08:27:01;32.30;;;21.47;;
8584;SDS011;7180;52.742;11.420;2023-03-03T08:29:26;25.97;;;20.80;;
8584;SDS011;7180;52.742;11.420;2023-03-03T08:31:51;30.73;;;21.63;;
8584;SDS011;7180;52.742;11.420;2023-03-03T08:34:17;30.73;;;21.03;;
8584;SDS011;7180;52.742;11.420;2023-03-03T08:36:42;34.70;;;21.83;;
8584;SDS011;7180;52.742;11.420;2023-03-03T08:39:07;32.13;;;21.90;;
8584;SDS011;7180;52.742;11.420;2023-03-03T08:41:34;30.00;;;20.70;;
8584;SDS011;7180;52.742;11.420;2023-03-03T08:43:59;30.73;;;21.07;;
8584;SDS011;7180;52.742;11.420;2023-03-03T08:46:24;32.20;;;21.43;;
8584;SDS011;7180;52.742;11.420;2023-03-03T08:48:50;32.83;;;22.47;;
8584;SDS011;7180;52.742;11.420;2023-03-03T08:51:16;33.97;;;22.13;;
8584;SDS011;7180;52.742;11.420;2023-03-03T08:53:42;36.30;;;22.97;;
8584;SDS011;7180;52.742;11.420;2023-03-03T08:56:07;32.57;;;22.20;;
8584;SDS011;7180;52.742;11.420;2023-03-03T08:58:34;34.23;;;21.37;;
8584;SDS011;7180;52.742;11.420;2023-03-03T09:00:59;31.37;;;21.90;;
8584;SDS011;7180;52.742;11.420;2023-03-03T09:03:24;33.53;;;21.13;;
8584;SDS011;7180;52.742;11.420;2023-03-03T09:05:49;39.37;;;24.33;;
8584;SDS011;7180;52.742;11.420;2023-03-03T09:08:15;35.97;;;23.10;;
8584;SDS011;7180;52.742;11.420;2023-03-03T09:10:40;38.07;;;23.97;;
8584;SDS011;7180;52.742;11.420;2023-03-03T09:13:15;35.33;;;23.87;;
8584;SDS011;7180;52.742;11.420;2023-03-03T09:15:43;37.80;;;24.43;;
8584;SDS011;7180;52.742;11.420;2023-03-03T09:18:35;35.93;;;21.73;;
8584;SDS011;7180;52.742;11.420;2023-03-03T09:21:13;32.73;;;22.80;;
8584;SDS011;7180;52.742;11.420;2023-03-03T09:24:03;32.67;;;21.80;;
8584;SDS011;7180;52.742;11.420;2023-03-03T09:26:30;38.13;;;23.83;;
8584;SDS011;7180;52.742;11.420;2023-03-03T09:31:38;36.73;;;23.80;;
8584;SDS011;7180;52.742;11.420;2023-03-03T09:39:56;33.50;;;22.57;;
8584;SDS011;7180;52.742;11.420;2023-03-03T09:42:24;37.97;;;24.80;;
8584;SDS011;7180;52.742;11.420;2023-03-03T09:50:33;33.90;;;20.93;;
8584;SDS011;7180;52.742;11.420;2023-03-03T09:55:46;33.63;;;20.90;;
8584;SDS011;7180;52.742;11.420;2023-03-03T10:01:24;36.20;;;21.70;;
8584;SDS011;7180;52.742;11.420;2023-03-03T10:04:05;28.70;;;19.80;;
8584;SDS011;7180;52.742;11.420;2023-03-03T10:06:38;31.93;;;20.97;;
8584;SDS011;7180;52.742;11.420;2023-03-03T10:12:14;33.70;;;21.23;;
8584;SDS011;7180;52.742;11.420;2023-03-03T10:15:03;29.77;;;21.90;;
8584;SDS011;7180;52.742;11.420;2023-03-03T10:17:42;31.03;;;22.20;;
8584;SDS011;7180;52.742;11.420;2023-03-03T10:23:12;27.63;;;19.00;;
8584;SDS011;7180;52.742;11.420;2023-03-03T10:25:52;27.53;;;18.83;;
8584;SDS011;7180;52.742;11.420;2023-03-03T10:31:22;26.17;;;20.70;;
8584;SDS011;7180;52.742;11.420;2023-03-03T10:39:44;26.37;;;20.63;;
8584;SDS011;7180;52.742;11.420;2023-03-03T10:47:33;28.67;;;20.07;;
8584;SDS011;7180;52.742;11.420;2023-03-03T10:55:47;25.63;;;20.20;;
8584;SDS011;7180;52.742;11.420;2023-03-03T10:58:22;24.30;;;19.13;;
8584;SDS011;7180;52.742;11.420;2023-03-03T11:00:51;23.70;;;18.67;;
8584;SDS011;7180;52.742;11.420;2023-03-03T11:03:37;22.03;;;18.73;;
8584;SDS011;7180;52.742;11.420;2023-03-03T11:06:12;23.30;;;18.10;;
8584;SDS011;7180;52.742;11.420;2023-03-03T11:14:20;22.60;;;18.00;;
8584;SDS011;7180;52.742;11.420;2023-03-03T11:22:23;22.83;;;18.17;;
8584;SDS011;7180;52.742;11.420;2023-03-03T11:36:10;20.87;;;17.80;;
8584;SDS011;7180;52.742;11.420;2023-03-03T11:38:53;19.70;;;16.93;;
8584;SDS011;7180;52.742;11.420;2023-03-03T11:42:10;20.67;;;17.10;;
8584;SDS011;7180;52.742;11.420;2023-03-03T11:47:03;18.57;;;16.57;;
8584;SDS011;7180;52.742;11.420;2023-03-03T11:49:38;19.47;;;17.10;;
8584;SDS011;7180;52.742;11.420;2023-03-03T12:03:20;18.80;;;16.07;;
8584;SDS011;7180;52.742;11.420;2023-03-03T12:08:43;17.20;;;15.47;;
8584;SDS011;7180;52.742;11.420;2023-03-03T12:11:31;20.63;;;17.10;;
8584;SDS011;7180;52.742;11.420;2023-03-03T12:17:05;17.53;;;15.63;;
8584;SDS011;7180;52.742;11.420;2023-03-03T12:25:25;17.93;;;16.03;;
8584;SDS011;7180;52.742;11.420;2023-03-03T12:30:58;18.07;;;16.13;;
8584;SDS011;7180;52.742;11.420;2023-03-03T12:36:21;18.63;;;16.30;;
8584;SDS011;7180;52.742;11.420;2023-03-03T12:39:02;18.17;;;16.27;;
8584;SDS011;7180;52.742;11.420;2023-03-03T12:44:25;18.30;;;16.40;;
8584;SDS011;7180;52.742;11.420;2023-03-03T12:47:00;18.13;;;16.17;;
8584;SDS011;7180;52.742;11.420;2023-03-03T12:49:37;18.87;;;16.87;;
8584;SDS011;7180;52.742;11.420;2023-03-03T12:57:41;17.63;;;15.73;;
8584;SDS011;7180;52.742;11.420;2023-03-03T13:00:22;18.67;;;16.67;;
8584;SDS011;7180;52.742;11.420;2023-03-03T13:06:03;21.47;;;17.20;;
8584;SDS011;7180;52.742;11.420;2023-03-03T13:11:39;18.97;;;16.57;;
8584;SDS011;7180;52.742;11.420;2023-03-03T13:14:26;19.70;;;17.13;;
8584;SDS011;7180;52.742;11.420;2023-03-03T13:19:32;19.63;;;16.03;;
8584;SDS011;7180;52.742;11.420;2023-03-03T13:28:00;19.73;;;16.03;;
8584;SDS011;7180;52.742;11.420;2023-03-03T13:30:32;19.10;;;16.47;;
8584;SDS011;7180;52.742;11.420;2023-03-03T13:35:52;19.67;;;15.70;;
8584;SDS011;7180;52.742;11.420;2023-03-03T13:38:20;20.83;;;16.57;;
8584;SDS011;7180;52.742;11.420;2023-03-03T13:40:53;19.30;;;16.07;;
8584;SDS011;7180;52.742;11.420;2023-03-03T13:43:28;20.43;;;16.20;;
8584;SDS011;7180;52.742;11.420;2023-03-03T13:57:09;21.57;;;17.20;;
8584;SDS011;7180;52.742;11.420;2023-03-03T14:02:39;21.37;;;17.13;;
8584;SDS011;7180;52.742;11.420;2023-03-03T14:10:30;21.97;;;17.10;;
8584;SDS011;7180;52.742;11.420;2023-03-03T14:13:03;21.07;;;16.83;;
8584;SDS011;7180;52.742;11.420;2023-03-03T14:15:33;20.13;;;17.13;;
8584;SDS011;7180;52.742;11.420;2023-03-03T14:18:14;20.53;;;17.63;;
8584;SDS011;7180;52.742;11.420;2023-03-03T14:20:55;20.00;;;16.80;;
8584;SDS011;7180;52.742;11.420;2023-03-03T14:26:27;20.67;;;16.70;;
8584;SDS011;7180;52.742;11.420;2023-03-03T14:29:02;21.40;;;17.23;;
8584;SDS011;7180;52.742;11.420;2023-03-03T14:31:40;21.10;;;16.93;;
8584;SDS011;7180;52.742;11.420;2023-03-03T14:36:37;20.40;;;17.53;;
8584;SDS011;7180;52.742;11.420;2023-03-03T14:41:57;18.57;;;16.60;;
8584;SDS011;7180;52.742;11.420;2023-03-03T14:44:56;21.63;;;17.20;;
8584;SDS011;7180;52.742;11.420;2023-03-03T14:47:22;21.50;;;17.47;;
8584;SDS011;7180;52.742;11.420;2023-03-03T14:49:49;18.33;;;16.13;;
8584;SDS011;7180;52.742;11.420;2023-03-03T14:54:51;23.30;;;16.57;;
8584;SDS011;7180;52.742;11.420;2023-03-03T15:02:41;18.97;;;16.10;;
8584;SDS011;7180;52.742;11.420;2023-03-03T15:05:14;18.83;;;16.80;;
8584;SDS011;7180;52.742;11.420;2023-03-03T15:07:40;20.57;;;16.00;;
8584;SDS011;7180;52.742;11.420;2023-03-03T15:10:06;19.57;;;15.97;;
8584;SDS011;7180;52.742;11.420;2023-03-03T15:12:33;21.73;;;16.23;;
8584;SDS011;7180;52.742;11.420;2023-03-03T15:17:39;21.73;;;17.47;;
8584;SDS011;7180;52.742;11.420;2023-03-03T15:20:09;19.77;;;16.43;;
8584;SDS011;7180;52.742;11.420;2023-03-03T15:22:58;20.40;;;17.23;;
8584;SDS011;7180;52.742;11.420;2023-03-03T15:25:36;21.40;;;17.37;;
8584;SDS011;7180;52.742;11.420;2023-03-03T15:42:10;21.57;;;17.50;;
8584;SDS011;7180;52.742;11.420;2023-03-03T15:44:45;22.97;;;18.10;;
8584;SDS011;7180;52.742;11.420;2023-03-03T15:47:42;19.90;;;16.83;;
8584;SDS011;7180;52.742;11.420;2023-03-03T15:50:23;21.23;;;17.80;;
8584;SDS011;7180;52.742;11.420;2023-03-03T16:00:49;21.80;;;17.90;;
8584;SDS011;7180;52.742;11.420;2023-03-03T16:03:24;27.90;;;21.87;;
8584;SDS011;7180;52.742;11.420;2023-03-03T16:17:18;40.00;;;32.77;;
8584;SDS011;7180;52.742;11.420;2023-03-03T16:19:53;23.57;;;21.07;;
8584;SDS011;7180;52.742;11.420;2023-03-03T16:22:48;20.23;;;18.13;;
8584;SDS011;7180;52.742;11.420;2023-03-03T16:25:30;19.77;;;17.80;;
8584;SDS011;7180;52.742;11.420;2023-03-03T16:28:34;34.60;;;26.93;;
8584;SDS011;7180;52.742;11.420;2023-03-03T16:33:56;24.03;;;20.93;;
8584;SDS011;7180;52.742;11.420;2023-03-03T16:36:50;41.43;;;30.27;;
8584;SDS011;7180;52.742;11.420;2023-03-03T16:39:38;93.77;;;51.70;;
8584;SDS011;7180;52.742;11.420;2023-03-03T16:42:28;74.70;;;42.10;;
8584;SDS011;7180;52.742;11.420;2023-03-03T16:45:04;65.20;;;44.50;;
8584;SDS011;7180;52.742;11.420;2023-03-03T16:50:21;22.10;;;19.60;;
8584;SDS011;7180;52.742;11.420;2023-03-03T16:56:17;19.03;;;17.03;;
8584;SDS011;7180;52.742;11.420;2023-03-03T17:06:48;20.13;;;18.13;;
8584;SDS011;7180;52.742;11.420;2023-03-03T17:23:08;19.73;;;17.63;;
8584;SDS011;7180;52.742;11.420;2023-03-03T17:28:45;20.13;;;18.03;;
8584;SDS011;7180;52.742;11.420;2023-03-03T17:40:05;20.83;;;18.57;;
8584;SDS011;7180;52.742;11.420;2023-03-03T17:45:42;21.40;;;19.13;;
8584;SDS011;7180;52.742;11.420;2023-03-03T17:51:15;23.23;;;19.23;;
8584;SDS011;7180;52.742;11.420;2023-03-03T17:56:37;25.07;;;19.83;;
8584;SDS011;7180;52.742;11.420;2023-03-03T17:59:17;25.47;;;18.87;;
8584;SDS011;7180;52.742;11.420;2023-03-03T18:13:16;28.37;;;20.53;;
8584;SDS011;7180;52.742;11.420;2023-03-03T18:18:43;26.53;;;20.93;;
8584;SDS011;7180;52.742;11.420;2023-03-03T18:21:14;28.63;;;20.50;;
8584;SDS011;7180;52.742;11.420;2023-03-03T18:23:45;29.23;;;20.73;;
8584;SDS011;7180;52.742;11.420;2023-03-03T18:31:48;29.00;;;20.57;;
8584;SDS011;7180;52.742;11.420;2023-03-03T18:36:55;26.93;;;20.57;;
8584;SDS011;7180;52.742;11.420;2023-03-03T18:39:44;33.47;;;21.77;;
8584;SDS011;7180;52.742;11.420;2023-03-03T18:44:51;28.03;;;20.23;;
8584;SDS011;7180;52.742;11.420;2023-03-03T18:47:16;27.20;;;19.43;;
8584;SDS011;7180;52.742;11.420;2023-03-03T18:52:33;27.83;;;20.50;;
8584;SDS011;7180;52.742;11.420;2023-03-03T18:57:33;28.37;;;20.33;;
8584;SDS011;7180;52.742;11.420;2023-03-03T19:00:13;28.83;;;19.90;;
8584;SDS011;7180;52.742;11.420;2023-03-03T19:02:55;26.30;;;19.90;;
8584;SDS011;7180;52.742;11.420;2023-03-03T19:05:24;29.60;;;20.60;;
8584;SDS011;7180;52.742;11.420;2023-03-03T19:07:57;26.00;;;20.40;;
8584;SDS011;7180;52.742;11.420;2023-03-03T19:15:59;28.70;;;20.57;;
8584;SDS011;7180;52.742;11.420;2023-03-03T19:18:56;25.63;;;20.00;;
8584;SDS011;7180;52.742;11.420;2023-03-03T19:21:21;26.90;;;20.07;;
8584;SDS011;7180;52.742;11.420;2023-03-03T19:27:00;28.50;;;20.10;;
8584;SDS011;7180;52.742;11.420;2023-03-03T19:29:31;29.80;;;21.00;;
8584;SDS011;7180;52.742;11.420;2023-03-03T19:35:01;26.33;;;20.83;;
8584;SDS011;7180;52.742;11.420;2023-03-03T19:37:56;28.77;;;20.93;;
8584;SDS011;7180;52.742;11.420;2023-03-03T19:43:33;30.77;;;20.47;;
8584;SDS011;7180;52.742;11.420;2023-03-03T19:52:11;23.47;;;20.10;;
8584;SDS011;7180;52.742;11.420;2023-03-03T20:06:18;28.27;;;20.17;;
8584;SDS011;7180;52.742;11.420;2023-03-03T20:11:32;27.40;;;20.00;;
8584;SDS011;7180;52.742;11.420;2023-03-03T20:16:43;27.40;;;21.67;;
8584;SDS011;7180;52.742;11.420;2023-03-03T20:19:30;24.93;;;21.63;;
8584;SDS011;7180;52.742;11.420;2023-03-03T20:22:26;28.13;;;21.97;;
8584;SDS011;7180;52.742;11.420;2023-03-03T20:25:19;28.20;;;20.43;;
8584;SDS011;7180;52.742;11.420;2023-03-03T20:33:23;25.27;;;19.20;;
8584;SDS011;7180;52.742;11.420;2023-03-03T20:36:18;25.43;;;20.53;;
8584;SDS011;7180;52.742;11.420;2023-03-03T20:38:58;26.50;;;20.37;;
8584;SDS011;7180;52.742;11.420;2023-03-03T20:41:43;24.00;;;19.77;;
8584;SDS011;7180;52.742;11.420;2023-03-03T20:55:45;25.57;;;19.40;;
8584;SDS011;7180;52.742;11.420;2023-03-03T21:01:39;25.33;;;19.40;;
8584;SDS011;7180;52.742;11.420;2023-03-03T21:04:23;25.77;;;19.87;;